sensor_id;sensor_type;location;lat;lon;timestamp;temperature;humidity
26745;DHT22;14342;50.960;13.880;2024-01-11T00:00:59;-3.90;99.90
26745;DHT22;14342;50.960;13.880;2024-01-11T00:01:59;-3.90;99.90
26745;DHT22;14342;50.960;13.880;2024-01-11T00:03:00;-3.90;99.90
26745;DHT22;14342;50.960;13.880;2024-01-11T00:04:01;-3.70;99.90
26745;DHT22;14342;50.960;13.880;2024-01-11T00:05:02;-4.00;99.90
26745;DHT22;14342;50.960;13.880;2024-01-11T00:06:04;-4.00;99.90
26745;DHT22;14342;50.960;13.880;2024-01-11T00:07:04;-4.00;99.90
26745;DHT22;14342;50.960;13.880;2024-01-11T00:08:06;-4.00;99.90
26745;DHT22;14342;50.960;13.880;2024-01-11T00:09:06;-4.00;99.90
26745;DHT22;14342;50.960;13.880;2024-01-11T00:10:07;-3.80;99.90
26745;DHT22;14342;50.960;13.880;2024-01-11T00:11:09;-4.00;99.90
26745;DHT22;14342;50.960;13.880;2024-01-11T00:12:09;-4.00;99.90
26745;DHT22;14342;50.960;13.880;2024-01-11T00:13:10;-4.10;99.90
26745;DHT22;14342;50.960;13.880;2024-01-11T00:14:13;-4.20;99.90
26745;DHT22;14342;50.960;13.880;2024-01-11T00:15:14;-4.20;99.90
26745;DHT22;14342;50.960;13.880;2024-01-11T00:16:15;-4.20;99.90
26745;DHT22;14342;50.960;13.880;2024-01-11T00:17:16;-4.30;99.90
26745;DHT22;14342;50.960;13.880;2024-01-11T00:18:18;-4.20;99.90
26745;DHT22;14342;50.960;13.880;2024-01-11T00:19:18;-4.20;99.90
26745;DHT22;14342;50.960;13.880;2024-01-11T00:20:20;-4.20;99.90
26745;DHT22;14342;50.960;13.880;2024-01-11T00:21:21;-4.30;99.90
26745;DHT22;14342;50.960;13.880;2024-01-11T00:22:22;-4.30;99.90
26745;DHT22;14342;50.960;13.880;2024-01-11T00:23:23;-4.20;99.90
26745;DHT22;14342;50.960;13.880;2024-01-11T00:24:24;-4.30;99.90
26745;DHT22;14342;50.960;13.880;2024-01-11T00:25:25;-4.20;99.90
26745;DHT22;14342;50.960;13.880;2024-01-11T00:26:26;-4.20;99.90
26745;DHT22;14342;50.960;13.880;2024-01-11T00:27:27;-4.20;99.90
26745;DHT22;14342;50.960;13.880;2024-01-11T00:28:28;-4.20;99.90
26745;DHT22;14342;50.960;13.880;2024-01-11T00:29:30;-4.20;99.90
26745;DHT22;14342;50.960;13.880;2024-01-11T00:30:32;-4.20;99.90
26745;DHT22;14342;50.960;13.880;2024-01-11T00:31:32;-4.30;99.90
26745;DHT22;14342;50.960;13.880;2024-01-11T00:32:34;-4.30;99.90
26745;DHT22;14342;50.960;13.880;2024-01-11T00:33:35;-4.30;99.90
26745;DHT22;14342;50.960;13.880;2024-01-11T00:34:36;-4.10;99.90
26745;DHT22;14342;50.960;13.880;2024-01-11T00:35:37;-4.40;99.90
26745;DHT22;14342;50.960;13.880;2024-01-11T00:36:38;-4.40;99.90
26745;DHT22;14342;50.960;13.880;2024-01-11T00:37:39;-4.40;99.90
26745;DHT22;14342;50.960;13.880;2024-01-11T00:38:41;-4.40;99.90
26745;DHT22;14342;50.960;13.880;2024-01-11T00:39:42;-4.40;99.90
26745;DHT22;14342;50.960;13.880;2024-01-11T00:40:44;-4.40;99.90
26745;DHT22;14342;50.960;13.880;2024-01-11T00:41:44;-4.40;99.90
26745;DHT22;14342;50.960;13.880;2024-01-11T00:42:46;-4.40;99.90
26745;DHT22;14342;50.960;13.880;2024-01-11T00:43:46;-4.40;99.90
26745;DHT22;14342;50.960;13.880;2024-01-11T00:44:49;-4.40;99.90
26745;DHT22;14342;50.960;13.880;2024-01-11T00:45:50;-4.40;99.90
26745;DHT22;14342;50.960;13.880;2024-01-11T00:46:51;-4.40;99.90
26745;DHT22;14342;50.960;13.880;2024-01-11T00:47:52;-4.50;99.90
26745;DHT22;14342;50.960;13.880;2024-01-11T00:48:54;-4.50;99.90
26745;DHT22;14342;50.960;13.880;2024-01-11T00:49:54;-4.60;99.90
26745;DHT22;14342;50.960;13.880;2024-01-11T00:50:56;-4.60;99.90
26745;DHT22;14342;50.960;13.880;2024-01-11T00:51:56;-4.70;99.90
26745;DHT22;14342;50.960;13.880;2024-01-11T00:52:58;-4.70;99.90
26745;DHT22;14342;50.960;13.880;2024-01-11T00:53:58;-4.80;99.90
26745;DHT22;14342;50.960;13.880;2024-01-11T00:55:00;-4.80;99.90
26745;DHT22;14342;50.960;13.880;2024-01-11T00:56:01;-4.80;99.90
26745;DHT22;14342;50.960;13.880;2024-01-11T00:57:02;-4.70;99.90
26745;DHT22;14342;50.960;13.880;2024-01-11T00:58:03;-4.70;99.90
26745;DHT22;14342;50.960;13.880;2024-01-11T00:59:05;-4.70;99.90
26745;DHT22;14342;50.960;13.880;2024-01-11T01:00:08;-4.60;99.90
26745;DHT22;14342;50.960;13.880;2024-01-11T01:01:12;-4.60;99.90
26745;DHT22;14342;50.960;13.880;2024-01-11T01:02:13;-4.40;99.90
26745;DHT22;14342;50.960;13.880;2024-01-11T01:03:15;-4.60;99.90
26745;DHT22;14342;50.960;13.880;2024-01-11T01:04:16;-4.60;99.90
26745;DHT22;14342;50.960;13.880;2024-01-11T01:05:17;-4.50;99.90
26745;DHT22;14342;50.960;13.880;2024-01-11T01:06:18;-4.60;99.90
26745;DHT22;14342;50.960;13.880;2024-01-11T01:07:20;-4.50;99.90
26745;DHT22;14342;50.960;13.880;2024-01-11T01:08:20;-4.60;99.90
26745;DHT22;14342;50.960;13.880;2024-01-11T01:09:22;-4.50;99.90
26745;DHT22;14342;50.960;13.880;2024-01-11T01:10:22;-4.50;99.90
26745;DHT22;14342;50.960;13.880;2024-01-11T01:11:24;-4.50;99.90
26745;DHT22;14342;50.960;13.880;2024-01-11T01:12:24;-4.50;99.90
26745;DHT22;14342;50.960;13.880;2024-01-11T01:13:26;-4.50;99.90
26745;DHT22;14342;50.960;13.880;2024-01-11T01:14:27;-4.60;99.90
26745;DHT22;14342;50.960;13.880;2024-01-11T01:15:29;-4.60;99.90
26745;DHT22;14342;50.960;13.880;2024-01-11T01:16:30;-4.20;99.90
26745;DHT22;14342;50.960;13.880;2024-01-11T01:17:31;-4.60;99.90
26745;DHT22;14342;50.960;13.880;2024-01-11T01:18:33;-4.30;99.90
26745;DHT22;14342;50.960;13.880;2024-01-11T01:19:33;-4.60;99.90
26745;DHT22;14342;50.960;13.880;2024-01-11T01:20:34;-4.60;99.90
26745;DHT22;14342;50.960;13.880;2024-01-11T01:21:35;-4.60;99.90
26745;DHT22;14342;50.960;13.880;2024-01-11T01:22:36;-4.60;99.90
26745;DHT22;14342;50.960;13.880;2024-01-11T01:23:37;-4.50;99.90
26745;DHT22;14342;50.960;13.880;2024-01-11T01:24:38;-4.70;99.90
26745;DHT22;14342;50.960;13.880;2024-01-11T01:25:40;-4.80;99.90
26745;DHT22;14342;50.960;13.880;2024-01-11T01:26:40;-4.90;99.90
26745;DHT22;14342;50.960;13.880;2024-01-11T01:27:42;-4.90;99.90
26745;DHT22;14342;50.960;13.880;2024-01-11T01:28:42;-5.00;99.90
26745;DHT22;14342;50.960;13.880;2024-01-11T01:29:44;-5.00;99.90
26745;DHT22;14342;50.960;13.880;2024-01-11T01:30:46;-5.00;99.90
26745;DHT22;14342;50.960;13.880;2024-01-11T01:31:47;-5.00;99.90
26745;DHT22;14342;50.960;13.880;2024-01-11T01:32:48;-4.90;99.90
26745;DHT22;14342;50.960;13.880;2024-01-11T01:33:50;-4.80;99.90
26745;DHT22;14342;50.960;13.880;2024-01-11T01:34:50;-4.80;99.90
26745;DHT22;14342;50.960;13.880;2024-01-11T01:35:52;-4.80;99.90
26745;DHT22;14342;50.960;13.880;2024-01-11T01:36:52;-4.70;99.90
26745;DHT22;14342;50.960;13.880;2024-01-11T01:37:54;-4.70;99.90
26745;DHT22;14342;50.960;13.880;2024-01-11T01:38:55;-4.60;99.90
26745;DHT22;14342;50.960;13.880;2024-01-11T01:39:56;-4.70;99.90
26745;DHT22;14342;50.960;13.880;2024-01-11T01:40:57;-4.70;99.90
26745;DHT22;14342;50.960;13.880;2024-01-11T01:41:59;-4.70;99.90
26745;DHT22;14342;50.960;13.880;2024-01-11T01:42:59;-4.60;99.90
26745;DHT22;14342;50.960;13.880;2024-01-11T01:44:01;-4.60;99.90
26745;DHT22;14342;50.960;13.880;2024-01-11T01:45:01;-4.60;99.90
26745;DHT22;14342;50.960;13.880;2024-01-11T01:46:05;-4.60;99.90
26745;DHT22;14342;50.960;13.880;2024-01-11T01:47:06;-4.60;99.90
26745;DHT22;14342;50.960;13.880;2024-01-11T01:48:08;-4.60;99.90
26745;DHT22;14342;50.960;13.880;2024-01-11T01:49:09;-4.70;99.90
26745;DHT22;14342;50.960;13.880;2024-01-11T01:50:10;-4.70;99.90
26745;DHT22;14342;50.960;13.880;2024-01-11T01:51:11;-4.70;99.90
26745;DHT22;14342;50.960;13.880;2024-01-11T01:52:13;-4.70;99.90
26745;DHT22;14342;50.960;13.880;2024-01-11T01:53:14;-4.70;99.90
26745;DHT22;14342;50.960;13.880;2024-01-11T01:54:16;-4.80;99.90
26745;DHT22;14342;50.960;13.880;2024-01-11T01:55:17;-4.70;99.90
26745;DHT22;14342;50.960;13.880;2024-01-11T01:56:20;-4.70;99.90
26745;DHT22;14342;50.960;13.880;2024-01-11T01:57:20;-4.70;99.90
26745;DHT22;14342;50.960;13.880;2024-01-11T01:58:22;-4.70;99.90
26745;DHT22;14342;50.960;13.880;2024-01-11T01:59:22;-4.70;99.90
26745;DHT22;14342;50.960;13.880;2024-01-11T02:00:25;-4.70;99.90
26745;DHT22;14342;50.960;13.880;2024-01-11T02:01:27;-4.70;99.90
26745;DHT22;14342;50.960;13.880;2024-01-11T02:02:29;-4.70;99.90
26745;DHT22;14342;50.960;13.880;2024-01-11T02:03:30;-4.70;99.90
26745;DHT22;14342;50.960;13.880;2024-01-11T02:04:33;-4.70;99.90
26745;DHT22;14342;50.960;13.880;2024-01-11T02:05:33;-4.70;99.90
26745;DHT22;14342;50.960;13.880;2024-01-11T02:06:35;-4.70;99.90
26745;DHT22;14342;50.960;13.880;2024-01-11T02:07:36;-4.80;99.90
26745;DHT22;14342;50.960;13.880;2024-01-11T02:08:37;-4.80;99.90
26745;DHT22;14342;50.960;13.880;2024-01-11T02:09:39;-4.90;99.90
26745;DHT22;14342;50.960;13.880;2024-01-11T02:10:40;-5.00;99.90
26745;DHT22;14342;50.960;13.880;2024-01-11T02:11:41;-5.00;99.90
26745;DHT22;14342;50.960;13.880;2024-01-11T02:12:42;-5.10;99.90
26745;DHT22;14342;50.960;13.880;2024-01-11T02:13:44;-5.10;99.90
26745;DHT22;14342;50.960;13.880;2024-01-11T02:14:45;-5.10;99.90
26745;DHT22;14342;50.960;13.880;2024-01-11T02:15:47;-5.00;99.90
26745;DHT22;14342;50.960;13.880;2024-01-11T02:16:49;-5.00;99.90
26745;DHT22;14342;50.960;13.880;2024-01-11T02:17:50;-5.00;99.90
26745;DHT22;14342;50.960;13.880;2024-01-11T02:18:51;-5.00;99.90
26745;DHT22;14342;50.960;13.880;2024-01-11T02:19:52;-5.00;99.90
26745;DHT22;14342;50.960;13.880;2024-01-11T02:20:54;-5.00;99.90
26745;DHT22;14342;50.960;13.880;2024-01-11T02:21:56;-5.00;99.90
26745;DHT22;14342;50.960;13.880;2024-01-11T02:23:01;-5.00;99.90
26745;DHT22;14342;50.960;13.880;2024-01-11T02:24:05;-5.00;99.90
26745;DHT22;14342;50.960;13.880;2024-01-11T02:25:07;-5.00;99.90
26745;DHT22;14342;50.960;13.880;2024-01-11T02:26:08;-5.00;99.90
26745;DHT22;14342;50.960;13.880;2024-01-11T02:27:10;-5.00;99.90
26745;DHT22;14342;50.960;13.880;2024-01-11T02:28:11;-5.00;99.90
26745;DHT22;14342;50.960;13.880;2024-01-11T02:29:12;-5.00;99.90
26745;DHT22;14342;50.960;13.880;2024-01-11T02:30:13;-5.00;99.90
26745;DHT22;14342;50.960;13.880;2024-01-11T02:31:15;-5.10;99.90
26745;DHT22;14342;50.960;13.880;2024-01-11T02:32:15;-5.10;99.90
26745;DHT22;14342;50.960;13.880;2024-01-11T02:33:17;-5.10;99.90
26745;DHT22;14342;50.960;13.880;2024-01-11T02:34:19;-5.20;99.90
26745;DHT22;14342;50.960;13.880;2024-01-11T02:35:20;-4.90;99.90
26745;DHT22;14342;50.960;13.880;2024-01-11T02:36:22;-5.20;99.90
26745;DHT22;14342;50.960;13.880;2024-01-11T02:37:22;-5.30;99.90
26745;DHT22;14342;50.960;13.880;2024-01-11T02:38:24;-5.30;99.90
26745;DHT22;14342;50.960;13.880;2024-01-11T02:39:26;-5.40;99.90
26745;DHT22;14342;50.960;13.880;2024-01-11T02:40:28;-5.40;99.90
26745;DHT22;14342;50.960;13.880;2024-01-11T02:41:29;-5.50;99.90
26745;DHT22;14342;50.960;13.880;2024-01-11T02:42:31;-5.40;99.90
26745;DHT22;14342;50.960;13.880;2024-01-11T02:43:32;-5.50;99.90
26745;DHT22;14342;50.960;13.880;2024-01-11T02:44:36;-5.40;99.90
26745;DHT22;14342;50.960;13.880;2024-01-11T02:45:37;-5.40;99.90
26745;DHT22;14342;50.960;13.880;2024-01-11T02:46:38;-5.40;99.90
26745;DHT22;14342;50.960;13.880;2024-01-11T02:47:39;-5.30;99.90
26745;DHT22;14342;50.960;13.880;2024-01-11T02:48:41;-5.20;99.90
26745;DHT22;14342;50.960;13.880;2024-01-11T02:49:41;-5.30;99.90
26745;DHT22;14342;50.960;13.880;2024-01-11T02:50:43;-5.30;99.90
26745;DHT22;14342;50.960;13.880;2024-01-11T02:51:43;-5.20;99.90
26745;DHT22;14342;50.960;13.880;2024-01-11T02:52:44;-5.20;99.90
26745;DHT22;14342;50.960;13.880;2024-01-11T02:53:46;-5.20;99.90
26745;DHT22;14342;50.960;13.880;2024-01-11T02:54:47;-5.20;99.90
26745;DHT22;14342;50.960;13.880;2024-01-11T02:55:49;-4.90;99.90
26745;DHT22;14342;50.960;13.880;2024-01-11T02:56:50;-5.10;99.90
26745;DHT22;14342;50.960;13.880;2024-01-11T02:57:51;-5.10;99.90
26745;DHT22;14342;50.960;13.880;2024-01-11T02:58:52;-5.10;99.90
26745;DHT22;14342;50.960;13.880;2024-01-11T02:59:53;-5.10;99.90
26745;DHT22;14342;50.960;13.880;2024-01-11T03:00:54;-5.10;99.90
26745;DHT22;14342;50.960;13.880;2024-01-11T03:01:55;-5.20;99.90
26745;DHT22;14342;50.960;13.880;2024-01-11T03:02:56;-5.20;99.90
26745;DHT22;14342;50.960;13.880;2024-01-11T03:03:59;-5.20;99.90
26745;DHT22;14342;50.960;13.880;2024-01-11T03:04:59;-4.80;99.90
26745;DHT22;14342;50.960;13.880;2024-01-11T03:06:01;-5.20;99.90
26745;DHT22;14342;50.960;13.880;2024-01-11T03:07:01;-5.20;99.90
26745;DHT22;14342;50.960;13.880;2024-01-11T03:08:03;-5.10;99.90
26745;DHT22;14342;50.960;13.880;2024-01-11T03:09:04;-5.20;99.90
26745;DHT22;14342;50.960;13.880;2024-01-11T03:10:07;-5.30;99.90
26745;DHT22;14342;50.960;13.880;2024-01-11T03:11:08;-5.30;99.90
26745;DHT22;14342;50.960;13.880;2024-01-11T03:12:09;-5.40;99.90
26745;DHT22;14342;50.960;13.880;2024-01-11T03:13:10;-5.40;99.90
26745;DHT22;14342;50.960;13.880;2024-01-11T03:14:13;-5.30;99.90
26745;DHT22;14342;50.960;13.880;2024-01-11T03:15:13;-5.60;99.90
26745;DHT22;14342;50.960;13.880;2024-01-11T03:16:15;-5.70;99.90
26745;DHT22;14342;50.960;13.880;2024-01-11T03:17:16;-5.70;99.90
26745;DHT22;14342;50.960;13.880;2024-01-11T03:18:17;-5.80;99.90
26745;DHT22;14342;50.960;13.880;2024-01-11T03:19:18;-5.80;99.90
26745;DHT22;14342;50.960;13.880;2024-01-11T03:20:19;-5.80;99.90
26745;DHT22;14342;50.960;13.880;2024-01-11T03:21:24;-5.80;99.90
26745;DHT22;14342;50.960;13.880;2024-01-11T03:22:25;-5.80;99.90
26745;DHT22;14342;50.960;13.880;2024-01-11T03:23:26;-5.60;99.90
26745;DHT22;14342;50.960;13.880;2024-01-11T03:24:27;-5.70;99.90
26745;DHT22;14342;50.960;13.880;2024-01-11T03:25:31;-5.30;99.90
26745;DHT22;14342;50.960;13.880;2024-01-11T03:26:31;-5.60;99.90
26745;DHT22;14342;50.960;13.880;2024-01-11T03:27:33;-5.60;99.90
26745;DHT22;14342;50.960;13.880;2024-01-11T03:28:33;-5.30;99.90
26745;DHT22;14342;50.960;13.880;2024-01-11T03:29:35;-5.60;99.90
26745;DHT22;14342;50.960;13.880;2024-01-11T03:30:36;-5.60;99.90
26745;DHT22;14342;50.960;13.880;2024-01-11T03:31:37;-5.50;99.90
26745;DHT22;14342;50.960;13.880;2024-01-11T03:32:41;-5.50;99.90
26745;DHT22;14342;50.960;13.880;2024-01-11T03:33:42;-5.50;99.90
26745;DHT22;14342;50.960;13.880;2024-01-11T03:34:43;-5.40;99.90
26745;DHT22;14342;50.960;13.880;2024-01-11T03:35:44;-5.40;99.90
26745;DHT22;14342;50.960;13.880;2024-01-11T03:36:44;-5.50;99.90
26745;DHT22;14342;50.960;13.880;2024-01-11T03:37:46;-5.50;99.90
26745;DHT22;14342;50.960;13.880;2024-01-11T03:38:47;-5.60;99.90
26745;DHT22;14342;50.960;13.880;2024-01-11T03:39:48;-5.70;99.90
26745;DHT22;14342;50.960;13.880;2024-01-11T03:40:50;-5.90;99.90
26745;DHT22;14342;50.960;13.880;2024-01-11T03:41:52;-5.90;99.90
26745;DHT22;14342;50.960;13.880;2024-01-11T03:42:53;-6.00;99.90
26745;DHT22;14342;50.960;13.880;2024-01-11T03:43:53;-6.10;99.90
26745;DHT22;14342;50.960;13.880;2024-01-11T03:44:55;-6.10;99.90
26745;DHT22;14342;50.960;13.880;2024-01-11T03:45:56;-5.90;99.90
26745;DHT22;14342;50.960;13.880;2024-01-11T03:46:57;-6.10;99.90
26745;DHT22;14342;50.960;13.880;2024-01-11T03:47:58;-5.90;99.90
26745;DHT22;14342;50.960;13.880;2024-01-11T03:48:59;-6.10;99.90
26745;DHT22;14342;50.960;13.880;2024-01-11T03:50:00;-6.10;99.90
26745;DHT22;14342;50.960;13.880;2024-01-11T03:51:02;-6.00;99.90
26745;DHT22;14342;50.960;13.880;2024-01-11T03:52:03;-6.20;99.90
26745;DHT22;14342;50.960;13.880;2024-01-11T03:53:04;-6.30;99.90
26745;DHT22;14342;50.960;13.880;2024-01-11T03:54:05;-6.30;99.90
26745;DHT22;14342;50.960;13.880;2024-01-11T03:55:06;-6.30;99.90
26745;DHT22;14342;50.960;13.880;2024-01-11T03:56:09;-6.30;99.90
26745;DHT22;14342;50.960;13.880;2024-01-11T03:57:10;-6.20;99.90
26745;DHT22;14342;50.960;13.880;2024-01-11T03:58:11;-6.10;99.90
26745;DHT22;14342;50.960;13.880;2024-01-11T03:59:12;-6.10;99.90
26745;DHT22;14342;50.960;13.880;2024-01-11T04:00:14;-6.10;99.90
26745;DHT22;14342;50.960;13.880;2024-01-11T04:01:15;-6.00;99.90
26745;DHT22;14342;50.960;13.880;2024-01-11T04:02:17;-6.00;99.90
26745;DHT22;14342;50.960;13.880;2024-01-11T04:03:17;-6.00;99.90
26745;DHT22;14342;50.960;13.880;2024-01-11T04:04:18;-5.90;99.90
26745;DHT22;14342;50.960;13.880;2024-01-11T04:05:19;-5.90;99.90
26745;DHT22;14342;50.960;13.880;2024-01-11T04:06:21;-5.80;99.90
26745;DHT22;14342;50.960;13.880;2024-01-11T04:07:24;-5.80;99.90
26745;DHT22;14342;50.960;13.880;2024-01-11T04:08:24;-5.80;99.90
26745;DHT22;14342;50.960;13.880;2024-01-11T04:09:25;-5.70;99.90
26745;DHT22;14342;50.960;13.880;2024-01-11T04:10:26;-5.80;99.90
26745;DHT22;14342;50.960;13.880;2024-01-11T04:11:28;-5.70;99.90
26745;DHT22;14342;50.960;13.880;2024-01-11T04:12:30;-5.70;99.90
26745;DHT22;14342;50.960;13.880;2024-01-11T04:13:30;-5.70;99.90
26745;DHT22;14342;50.960;13.880;2024-01-11T04:14:32;-5.80;99.90
26745;DHT22;14342;50.960;13.880;2024-01-11T04:15:33;-5.80;99.90
26745;DHT22;14342;50.960;13.880;2024-01-11T04:16:39;-5.80;99.90
26745;DHT22;14342;50.960;13.880;2024-01-11T04:17:39;-5.70;99.90
26745;DHT22;14342;50.960;13.880;2024-01-11T04:18:41;-5.60;99.90
26745;DHT22;14342;50.960;13.880;2024-01-11T04:19:42;-5.60;99.90
26745;DHT22;14342;50.960;13.880;2024-01-11T04:20:43;-5.50;99.90
26745;DHT22;14342;50.960;13.880;2024-01-11T04:21:44;-5.50;99.90
26745;DHT22;14342;50.960;13.880;2024-01-11T04:22:45;-5.50;99.90
26745;DHT22;14342;50.960;13.880;2024-01-11T04:23:46;-5.50;99.90
26745;DHT22;14342;50.960;13.880;2024-01-11T04:24:46;-5.60;99.90
26745;DHT22;14342;50.960;13.880;2024-01-11T04:25:48;-5.80;99.90
26745;DHT22;14342;50.960;13.880;2024-01-11T04:26:52;-5.90;99.90
26745;DHT22;14342;50.960;13.880;2024-01-11T04:27:53;-5.90;99.90
26745;DHT22;14342;50.960;13.880;2024-01-11T04:28:54;-6.10;99.90
26745;DHT22;14342;50.960;13.880;2024-01-11T04:29:58;-6.10;99.90
26745;DHT22;14342;50.960;13.880;2024-01-11T04:30:58;-6.20;99.90
26745;DHT22;14342;50.960;13.880;2024-01-11T04:31:59;-6.20;99.90
26745;DHT22;14342;50.960;13.880;2024-01-11T04:33:01;-6.20;99.90
26745;DHT22;14342;50.960;13.880;2024-01-11T04:34:02;-6.20;99.90
26745;DHT22;14342;50.960;13.880;2024-01-11T04:35:04;-6.10;99.90
26745;DHT22;14342;50.960;13.880;2024-01-11T04:36:05;-6.00;99.90
26745;DHT22;14342;50.960;13.880;2024-01-11T04:37:06;-6.00;99.90
26745;DHT22;14342;50.960;13.880;2024-01-11T04:38:07;-5.90;99.90
26745;DHT22;14342;50.960;13.880;2024-01-11T04:39:08;-6.00;99.90
26745;DHT22;14342;50.960;13.880;2024-01-11T04:40:09;-6.00;99.90
26745;DHT22;14342;50.960;13.880;2024-01-11T04:41:11;-5.90;99.90
26745;DHT22;14342;50.960;13.880;2024-01-11T04:42:14;-5.90;99.90
26745;DHT22;14342;50.960;13.880;2024-01-11T04:43:15;-5.80;99.90
26745;DHT22;14342;50.960;13.880;2024-01-11T04:44:16;-5.90;99.90
26745;DHT22;14342;50.960;13.880;2024-01-11T04:45:17;-5.90;99.90
26745;DHT22;14342;50.960;13.880;2024-01-11T04:46:19;-5.90;99.90
26745;DHT22;14342;50.960;13.880;2024-01-11T04:47:21;-5.80;99.90
26745;DHT22;14342;50.960;13.880;2024-01-11T04:48:21;-5.80;99.90
26745;DHT22;14342;50.960;13.880;2024-01-11T04:49:22;-5.80;99.90
26745;DHT22;14342;50.960;13.880;2024-01-11T04:50:23;-5.80;99.90
26745;DHT22;14342;50.960;13.880;2024-01-11T04:51:24;-5.80;99.90
26745;DHT22;14342;50.960;13.880;2024-01-11T04:52:25;-5.80;99.90
26745;DHT22;14342;50.960;13.880;2024-01-11T04:53:26;-5.70;99.90
26745;DHT22;14342;50.960;13.880;2024-01-11T04:54:27;-5.70;99.90
26745;DHT22;14342;50.960;13.880;2024-01-11T04:55:28;-5.70;99.90
26745;DHT22;14342;50.960;13.880;2024-01-11T04:56:29;-5.70;99.90
26745;DHT22;14342;50.960;13.880;2024-01-11T04:57:31;-5.70;99.90
26745;DHT22;14342;50.960;13.880;2024-01-11T04:58:33;-5.50;99.90
26745;DHT22;14342;50.960;13.880;2024-01-11T04:59:33;-5.80;99.90
26745;DHT22;14342;50.960;13.880;2024-01-11T05:00:35;-5.80;99.90
26745;DHT22;14342;50.960;13.880;2024-01-11T05:01:35;-5.90;99.90
26745;DHT22;14342;50.960;13.880;2024-01-11T05:02:37;-5.90;99.90
26745;DHT22;14342;50.960;13.880;2024-01-11T05:03:37;-5.90;99.90
26745;DHT22;14342;50.960;13.880;2024-01-11T05:04:39;-5.90;99.90
26745;DHT22;14342;50.960;13.880;2024-01-11T05:05:39;-6.00;99.90
26745;DHT22;14342;50.960;13.880;2024-01-11T05:06:41;-6.00;99.90
26745;DHT22;14342;50.960;13.880;2024-01-11T05:07:42;-6.00;99.90
26745;DHT22;14342;50.960;13.880;2024-01-11T05:08:44;-6.00;99.90
26745;DHT22;14342;50.960;13.880;2024-01-11T05:09:45;-6.10;99.90
26745;DHT22;14342;50.960;13.880;2024-01-11T05:10:46;-6.10;99.90
26745;DHT22;14342;50.960;13.880;2024-01-11T05:11:47;-6.10;99.90
26745;DHT22;14342;50.960;13.880;2024-01-11T05:12:50;-6.10;99.90
26745;DHT22;14342;50.960;13.880;2024-01-11T05:13:51;-6.10;99.90
26745;DHT22;14342;50.960;13.880;2024-01-11T05:14:52;-6.20;99.90
26745;DHT22;14342;50.960;13.880;2024-01-11T05:15:53;-6.20;99.90
26745;DHT22;14342;50.960;13.880;2024-01-11T05:16:53;-6.20;99.90
26745;DHT22;14342;50.960;13.880;2024-01-11T05:17:55;-6.20;99.90
26745;DHT22;14342;50.960;13.880;2024-01-11T05:18:56;-6.20;99.90
26745;DHT22;14342;50.960;13.880;2024-01-11T05:19:57;-6.30;99.90
26745;DHT22;14342;50.960;13.880;2024-01-11T05:20:58;-6.40;99.90
26745;DHT22;14342;50.960;13.880;2024-01-11T05:21:59;-6.50;99.90
26745;DHT22;14342;50.960;13.880;2024-01-11T05:23:00;-6.60;99.90
26745;DHT22;14342;50.960;13.880;2024-01-11T05:24:01;-6.40;99.90
26745;DHT22;14342;50.960;13.880;2024-01-11T05:25:03;-6.40;99.90
26745;DHT22;14342;50.960;13.880;2024-01-11T05:26:03;-6.80;99.90
26745;DHT22;14342;50.960;13.880;2024-01-11T05:27:06;-6.90;99.90
26745;DHT22;14342;50.960;13.880;2024-01-11T05:28:08;-7.00;99.90
26745;DHT22;14342;50.960;13.880;2024-01-11T05:29:09;-7.00;99.90
26745;DHT22;14342;50.960;13.880;2024-01-11T05:30:10;-6.90;99.90
26745;DHT22;14342;50.960;13.880;2024-01-11T05:31:11;-6.90;99.90
26745;DHT22;14342;50.960;13.880;2024-01-11T05:32:13;-6.80;99.90
26745;DHT22;14342;50.960;13.880;2024-01-11T05:33:13;-6.80;99.90
26745;DHT22;14342;50.960;13.880;2024-01-11T05:34:15;-6.60;99.90
26745;DHT22;14342;50.960;13.880;2024-01-11T05:35:15;-6.70;99.90
26745;DHT22;14342;50.960;13.880;2024-01-11T05:36:17;-6.60;99.90
26745;DHT22;14342;50.960;13.880;2024-01-11T05:37:17;-6.40;99.90
26745;DHT22;14342;50.960;13.880;2024-01-11T05:38:21;-6.50;99.90
26745;DHT22;14342;50.960;13.880;2024-01-11T05:39:21;-6.40;99.90
26745;DHT22;14342;50.960;13.880;2024-01-11T05:40:23;-6.40;99.90
26745;DHT22;14342;50.960;13.880;2024-01-11T05:41:23;-6.20;99.90
26745;DHT22;14342;50.960;13.880;2024-01-11T05:42:25;-6.20;99.90
26745;DHT22;14342;50.960;13.880;2024-01-11T05:43:27;-6.10;99.90
26745;DHT22;14342;50.960;13.880;2024-01-11T05:44:28;-6.10;99.90
26745;DHT22;14342;50.960;13.880;2024-01-11T05:45:29;-6.00;99.90
26745;DHT22;14342;50.960;13.880;2024-01-11T05:46:30;-5.90;99.90
26745;DHT22;14342;50.960;13.880;2024-01-11T05:47:31;-5.90;99.90
26745;DHT22;14342;50.960;13.880;2024-01-11T05:48:33;-5.90;99.90
26745;DHT22;14342;50.960;13.880;2024-01-11T05:49:33;-5.90;99.90
26745;DHT22;14342;50.960;13.880;2024-01-11T05:50:35;-5.80;99.90
26745;DHT22;14342;50.960;13.880;2024-01-11T05:51:35;-5.90;99.90
26745;DHT22;14342;50.960;13.880;2024-01-11T05:52:37;-5.80;99.90
26745;DHT22;14342;50.960;13.880;2024-01-11T05:53:37;-5.80;99.90
26745;DHT22;14342;50.960;13.880;2024-01-11T05:54:38;-5.80;99.90
26745;DHT22;14342;50.960;13.880;2024-01-11T05:55:39;-5.80;99.90
26745;DHT22;14342;50.960;13.880;2024-01-11T05:56:40;-5.80;99.90
26745;DHT22;14342;50.960;13.880;2024-01-11T05:57:42;-5.50;99.90
26745;DHT22;14342;50.960;13.880;2024-01-11T05:58:43;-5.80;99.90
26745;DHT22;14342;50.960;13.880;2024-01-11T05:59:45;-5.70;99.90
26745;DHT22;14342;50.960;13.880;2024-01-11T06:00:46;-5.70;99.90
26745;DHT22;14342;50.960;13.880;2024-01-11T06:01:47;-5.60;99.90
26745;DHT22;14342;50.960;13.880;2024-01-11T06:02:48;-5.70;99.90
26745;DHT22;14342;50.960;13.880;2024-01-11T06:03:49;-5.70;99.90
26745;DHT22;14342;50.960;13.880;2024-01-11T06:04:50;-5.70;99.90
26745;DHT22;14342;50.960;13.880;2024-01-11T06:05:52;-5.70;99.90
26745;DHT22;14342;50.960;13.880;2024-01-11T06:06:52;-5.80;99.90
26745;DHT22;14342;50.960;13.880;2024-01-11T06:07:54;-5.80;99.90
26745;DHT22;14342;50.960;13.880;2024-01-11T06:08:54;-5.90;99.90
26745;DHT22;14342;50.960;13.880;2024-01-11T06:09:56;-5.80;99.90
26745;DHT22;14342;50.960;13.880;2024-01-11T06:10:56;-5.80;99.90
26745;DHT22;14342;50.960;13.880;2024-01-11T06:11:58;-5.80;99.90
26745;DHT22;14342;50.960;13.880;2024-01-11T06:12:59;-5.70;99.90
26745;DHT22;14342;50.960;13.880;2024-01-11T06:14:02;-5.70;99.90
26745;DHT22;14342;50.960;13.880;2024-01-11T06:15:03;-5.60;99.90
26745;DHT22;14342;50.960;13.880;2024-01-11T06:16:05;-5.70;99.90
26745;DHT22;14342;50.960;13.880;2024-01-11T06:17:05;-5.70;99.90
26745;DHT22;14342;50.960;13.880;2024-01-11T06:18:07;-5.70;99.90
26745;DHT22;14342;50.960;13.880;2024-01-11T06:19:07;-5.80;99.90
26745;DHT22;14342;50.960;13.880;2024-01-11T06:20:10;-5.80;99.90
26745;DHT22;14342;50.960;13.880;2024-01-11T06:21:10;-5.80;99.90